Time;durP1;ratioP1;P1;durP2;ratioP2;P2;SDS_P1;SDS_P2;PMS_P1;PMS_P2;Temp;Humidity;BMP_temperature;BMP_pressure;BME280_temperature;BME280_humidity;BME280_pressure;Samples;Min_cycle;Max_cycle;Signal;HPM_P1;HPM_P2
2023/03/14 00:01:28;;;;;;;2.75;1.67;;;;;;;20.95;34.67;98699.44;5021838;28;20053;-82
2023/03/14 00:03:54;;;;;;;2.63;1.73;;;;;;;20.93;34.90;98690.13;5045181;28;20038;-83
2023/03/14 00:06:20;;;;;;;3.03;1.60;;;;;;;20.82;34.97;98673.25;5008258;28;20455;-83
2023/03/14 00:08:46;;;;;;;3.55;1.83;;;;;;;20.89;34.80;98683.72;5042488;28;20041;-82
2023/03/14 00:11:17;;;;;;;3.72;1.70;;;;;;;20.94;34.71;98681.94;5008069;28;20033;-83
2023/03/14 00:13:43;;;;;;;2.70;1.50;;;;;;;20.89;34.74;98676.59;5038883;28;20049;-82
2023/03/14 00:16:11;;;;;;;5.53;1.83;;;;;;;20.89;34.88;98683.72;5028550;28;20037;-82
2023/03/14 00:18:38;;;;;;;2.13;1.40;;;;;;;20.88;34.75;98680.28;5037552;28;20029;-80
2023/03/14 00:21:05;;;;;;;2.92;1.63;;;;;;;20.90;34.77;98674.75;5007262;28;20088;-82
2023/03/14 00:23:33;;;;;;;2.83;1.83;;;;;;;20.79;35.04;98673.75;5035233;28;20080;-82
2023/03/14 00:26:04;;;;;;;2.38;1.48;;;;;;;20.89;34.83;98679.22;5004185;28;20041;-82
2023/03/14 00:28:30;;;;;;;3.25;1.83;;;;;;;20.88;35.00;98667.03;5038282;28;20161;-81
2023/03/14 00:30:56;;;;;;;2.47;1.38;;;;;;;20.92;34.87;98670.81;5000150;28;20030;-81
2023/03/14 00:33:22;;;;;;;5.70;1.92;;;;;;;20.90;34.88;98677.38;5039466;28;20049;-82
2023/03/14 00:36:00;;;;;;;2.85;1.65;;;;;;;20.89;34.82;98658.06;5000352;28;20041;-82
2023/03/14 00:38:30;;;;;;;1.70;1.52;;;;;;;20.92;34.77;98664.72;5036742;28;20029;-82
2023/03/14 00:40:57;;;;;;;2.63;1.52;;;;;;;20.79;34.87;98648.09;5001140;28;20754;-82
2023/03/14 00:43:23;;;;;;;2.17;1.27;;;;;;;20.84;34.94;98646.59;5040739;28;20068;-82
2023/03/14 00:45:50;;;;;;;4.10;2.20;;;;;;;20.80;34.84;98651.53;4996488;28;20061;-82
2023/03/14 00:48:16;;;;;;;3.90;1.60;;;;;;;20.84;34.97;98657.19;5038801;28;20411;-82
2023/03/14 00:50:42;;;;;;;4.28;1.90;;;;;;;20.85;34.87;98659.59;5003143;28;20063;-83
2023/03/14 00:53:07;;;;;;;4.70;1.80;;;;;;;20.87;35.00;98651.41;5039638;28;20037;-81
2023/03/14 00:55:36;;;;;;;3.03;1.52;;;;;;;20.79;35.00;98636.72;5003387;28;20449;-81
2023/03/14 00:58:02;;;;;;;5.18;2.00;;;;;;;20.85;35.03;98637.63;5042398;28;20038;-81
2023/03/14 01:00:28;;;;;;;3.08;1.40;;;;;;;20.78;35.15;98624.53;5011962;28;20044;-81
2023/03/14 01:02:53;;;;;;;2.22;1.23;;;;;;;20.86;34.80;98639.22;5018543;28;20060;-81
2023/03/14 01:05:19;;;;;;;4.45;1.73;;;;;;;20.85;34.78;98629.69;5008849;28;20041;-81
2023/03/14 01:07:44;;;;;;;4.90;1.95;;;;;;;20.79;35.11;98631.44;5038070;28;20045;-80
2023/03/14 01:10:10;;;;;;;3.75;1.63;;;;;;;20.75;35.12;98631.09;5002531;28;20072;-81
2023/03/14 01:12:36;;;;;;;3.78;1.60;;;;;;;20.81;34.98;98631.97;5039482;28;20029;-82
2023/03/14 01:15:02;;;;;;;2.28;1.63;;;;;;;20.77;35.05;98631.66;4990214;28;20068;-82
2023/03/14 01:17:27;;;;;;;4.80;1.85;;;;;;;20.83;35.00;98640.50;5036965;28;20034;-82
2023/03/14 01:19:53;;;;;;;2.92;1.50;;;;;;;20.70;34.97;98617.00;5037714;28;20455;-81
2023/03/14 01:22:21;;;;;;;5.05;1.95;;;;;;;20.83;35.12;98645.00;4996270;28;20036;-82
2023/03/14 01:24:46;;;;;;;2.80;1.65;;;;;;;20.80;35.01;98636.47;5031989;28;20049;-81
2023/03/14 01:27:12;;;;;;;3.85;1.88;;;;;;;20.83;34.92;98652.94;5002087;28;20044;-83
2023/03/14 01:29:38;;;;;;;3.63;2.00;;;;;;;20.84;35.30;98638.66;5036743;28;20046;-82
2023/03/14 01:32:05;;;;;;;3.25;1.75;;;;;;;20.77;34.88;98631.66;5001994;28;20045;-82
2023/03/14 01:34:30;;;;;;;4.68;1.60;;;;;;;20.75;34.91;98627.66;5021848;28;20545;-83
2023/03/14 01:36:56;;;;;;;2.78;1.42;;;;;;;20.77;35.06;98634.31;5002669;28;20080;-82
2023/03/14 01:39:21;;;;;;;3.53;1.52;;;;;;;20.81;35.05;98646.00;5040365;28;20041;-83
2023/03/14 01:41:47;;;;;;;3.90;1.92;;;;;;;20.79;35.06;98648.09;4996707;28;20036;-82
2023/03/14 01:44:13;;;;;;;3.17;1.65;;;;;;;20.71;35.01;98618.59;5023632;28;20040;-82
2023/03/14 01:46:46;;;;;;;2.83;1.70;;;;;;;20.87;34.92;98649.56;5000537;28;20048;-82
2023/03/14 01:49:30;;;;;;;3.17;1.65;;;;;;;20.81;35.06;98642.56;5033436;28;20030;-81
2023/03/14 01:52:08;;;;;;;3.65;1.70;;;;;;;20.82;35.08;98646.81;5000761;28;20069;-82
2023/03/14 01:54:46;;;;;;;3.83;1.27;;;;;;;20.78;35.25;98648.34;5035401;28;20029;-81
2023/03/14 01:57:36;;;;;;;3.72;1.58;;;;;;;20.78;35.34;98643.84;5000264;28;20044;-81
2023/03/14 02:00:11;;;;;;;;;;;;;;;20.80;35.16;98646.25;5037379;28;20041;-81
2023/03/14 02:02:44;;;;;;;1.80;1.48;;;;;;;20.79;34.96;98644.66;5015369;28;20058;-82
2023/03/14 02:05:14;;;;;;;3.63;1.63;;;;;;;20.83;35.03;98639.72;5023196;28;20041;-81
2023/03/14 02:07:53;;;;;;;3.53;1.95;;;;;;;20.77;35.07;98618.44;5023437;28;20029;-81
2023/03/14 02:10:27;;;;;;;2.28;1.48;;;;;;;20.75;35.01;98617.06;5008946;28;20022;-81
2023/03/14 02:12:56;;;;;;;3.38;1.58;;;;;;;20.79;35.06;98623.50;5036632;28;20041;-81
2023/03/14 02:15:45;;;;;;;1.67;1.50;;;;;;;20.72;35.21;98618.38;5024796;28;20416;-81
2023/03/14 02:18:29;;;;;;;1.98;1.27;;;;;;;20.83;35.09;98632.56;5030270;28;20076;-81
2023/03/14 02:20:58;;;;;;;4.07;1.98;;;;;;;20.79;34.99;98623.50;5036214;28;20037;-82
2023/03/14 02:23:43;;;;;;;3.42;1.40;;;;;;;20.80;35.05;98619.81;5017129;28;20038;-82
2023/03/14 02:26:16;;;;;;;2.10;1.50;;;;;;;20.82;34.92;98615.06;5032164;28;20037;-81
2023/03/14 02:28:42;;;;;;;3.80;1.58;;;;;;;20.75;35.05;98609.94;5033522;28;20033;-80
2023/03/14 02:31:09;;;;;;;2.13;1.65;;;;;;;20.78;35.08;98625.34;5032960;28;20041;-80
2023/03/14 02:33:37;;;;;;;1.88;1.20;;;;;;;20.78;34.90;98617.41;5029894;28;20045;-82
2023/03/14 02:36:07;;;;;;;4.05;1.42;;;;;;;20.77;35.02;98613.16;5031747;28;20112;-80
2023/03/14 02:39:08;;;;;;;2.50;1.20;;;;;;;20.78;35.10;98622.69;5024463;28;20029;-81
2023/03/14 02:41:35;;;;;;;3.63;1.60;;;;;;;20.80;35.14;98622.44;5026824;28;20113;-80
2023/03/14 02:44:04;;;;;;;3.67;1.55;;;;;;;20.79;35.10;98604.97;5034014;28;20030;-82
2023/03/14 02:46:30;;;;;;;1.38;1.00;;;;;;;20.72;35.04;98593.75;5021125;28;20123;-81
2023/03/14 02:49:08;;;;;;;3.40;1.60;;;;;;;20.76;35.18;98595.69;5031576;28;20077;-80
2023/03/14 02:51:36;;;;;;;2.75;1.20;;;;;;;20.75;34.99;98598.56;5031907;28;20065;-81
2023/03/14 02:54:02;;;;;;;2.85;1.38;;;;;;;20.78;35.21;98590.94;5038637;28;20033;-80
2023/03/14 02:56:28;;;;;;;2.33;1.42;;;;;;;20.78;35.17;98606.00;5052189;28;20071;-81
2023/03/14 02:58:54;;;;;;;1.83;1.20;;;;;;;20.77;35.23;98597.28;5022490;28;20045;-80
2023/03/14 03:01:28;;;;;;;3.70;1.50;;;;;;;20.75;35.12;98590.63;5017825;28;20053;-81
2023/03/14 03:03:54;;;;;;;2.13;1.25;;;;;;;20.80;35.09;98591.50;5023218;28;20040;-81
2023/03/14 03:06:19;;;;;;;2.80;1.20;;;;;;;20.77;35.23;98583.25;5032086;28;20045;-81
2023/03/14 03:08:45;;;;;;;1.75;1.20;;;;;;;20.78;35.06;98592.78;5020108;28;20034;-81
2023/03/14 03:11:11;;;;;;;4.03;1.60;;;;;;;20.74;35.29;98587.19;5035637;28;20041;-79
2023/03/14 03:13:37;;;;;;;1.38;0.93;;;;;;;20.75;35.11;98588.78;5032299;28;20038;-80
2023/03/14 03:16:04;;;;;;;2.55;1.40;;;;;;;20.74;35.15;98575.81;5030149;28;20038;-81
2023/03/14 03:18:30;;;;;;;2.67;1.25;;;;;;;20.76;35.06;98590.38;5032640;28;20421;-82
2023/03/14 03:20:59;;;;;;;1.70;1.05;;;;;;;20.75;35.15;98596.72;5031628;28;20064;-82
2023/03/14 03:23:25;;;;;;;3.03;1.42;;;;;;;20.76;35.20;98589.59;5031299;28;20037;-82
2023/03/14 03:25:51;;;;;;;2.50;1.52;;;;;;;20.69;35.17;98589.75;5036663;28;20037;-81
2023/03/14 03:28:17;;;;;;;2.10;1.17;;;;;;;20.77;35.12;98602.56;5025809;28;20033;-81
2023/03/14 03:30:44;;;;;;;2.53;1.13;;;;;;;20.73;35.40;98593.50;5014586;28;20100;-81
2023/03/14 03:33:10;;;;;;;2.58;1.17;;;;;;;20.76;35.21;98602.81;5032514;28;20084;-82
2023/03/14 03:35:45;;;;;;;2.55;1.25;;;;;;;20.76;35.05;98594.88;5031704;28;20045;-82
2023/03/14 03:38:11;;;;;;;1.92;1.08;;;;;;;20.70;35.33;98598.50;5050800;28;20063;-81
2023/03/14 03:40:38;;;;;;;1.50;1.40;;;;;;;20.77;35.00;98602.56;5037397;28;20075;-81
2023/03/14 03:43:04;;;;;;;1.85;1.15;;;;;;;20.74;35.34;98600.41;5032877;28;20408;-81
2023/03/14 03:45:31;;;;;;;2.25;1.20;;;;;;;20.73;35.51;98598.00;5019521;28;20110;-81
2023/03/14 03:47:56;;;;;;;1.08;0.75;;;;;;;20.74;35.39;98608.34;5014304;28;20061;-81
2023/03/14 03:50:22;;;;;;;2.25;1.40;;;;;;;20.75;35.17;98594.06;5035936;28;20041;-81
2023/03/14 03:52:48;;;;;;;2.60;1.45;;;;;;;20.75;35.16;98602.00;5035244;28;20796;-81
2023/03/14 03:55:13;;;;;;;2.03;1.20;;;;;;;20.71;35.15;98600.88;5037236;28;20037;-81
2023/03/14 03:57:39;;;;;;;2.10;1.15;;;;;;;20.66;35.20;98582.31;5027525;28;20045;-82
2023/03/14 04:00:06;;;;;;;1.85;1.08;;;;;;;20.72;35.20;98585.81;5034009;28;20049;-81
2023/03/14 04:02:39;;;;;;;1.30;1.10;;;;;;;20.65;35.09;98582.53;5036080;28;20052;-80
2023/03/14 04:05:06;;;;;;;2.67;1.38;;;;;;;20.73;35.12;98598.00;5035813;28;20037;-81
2023/03/14 04:07:33;;;;;;;2.03;1.42;;;;;;;20.75;35.15;98598.56;5032776;28;20060;-80
2023/03/14 04:09:59;;;;;;;2.55;1.17;;;;;;;20.67;35.19;98589.19;5052527;28;20044;-81
2023/03/14 04:12:38;;;;;;;2.55;1.23;;;;;;;20.74;35.25;98594.31;5019259;28;20072;-81
2023/03/14 04:15:07;;;;;;;2.47;1.50;;;;;;;20.75;35.26;98602.00;5036322;28;20046;-81
2023/03/14 04:17:34;;;;;;;1.45;0.90;;;;;;;20.72;35.35;98602.50;5032852;28;20034;-82
2023/03/14 04:20:00;;;;;;;2.35;1.23;;;;;;;20.73;35.15;98605.94;5029512;28;20124;-81
2023/03/14 04:22:33;;;;;;;1.58;1.00;;;;;;;20.74;35.29;98607.53;5028293;28;20042;-80
2023/03/14 04:24:59;;;;;;;1.75;1.13;;;;;;;20.72;35.43;98604.34;5018888;28;20052;-81
2023/03/14 04:27:25;;;;;;;2.67;0.90;;;;;;;20.66;35.48;98597.38;5015009;28;20052;-81
2023/03/14 04:29:51;;;;;;;1.55;0.93;;;;;;;20.68;35.31;98600.56;5009802;28;20032;-80
2023/03/14 04:32:23;;;;;;;1.65;0.70;;;;;;;20.63;35.29;98590.69;5028677;28;20041;-81
2023/03/14 04:34:49;;;;;;;0.80;0.77;;;;;;;20.70;35.15;98598.50;5030783;28;20034;-81
2023/03/14 04:37:15;;;;;;;2.10;1.17;;;;;;;20.71;35.42;98606.19;5030290;28;20042;-80
2023/03/14 04:39:43;;;;;;;1.77;0.82;;;;;;;20.72;35.23;98601.69;5035144;28;20057;-81
2023/03/14 04:42:16;;;;;;;2.10;1.05;;;;;;;20.72;35.30;98605.13;5032193;28;20037;-79
2023/03/14 04:44:43;;;;;;;1.48;1.10;;;;;;;20.70;35.41;98604.56;5028361;28;20037;-80
2023/03/14 04:47:09;;;;;;;2.63;1.40;;;;;;;20.67;35.32;98593.69;5023450;28;20093;-80
2023/03/14 04:49:36;;;;;;;2.53;1.20;;;;;;;20.64;35.60;98583.56;5033562;28;20091;-81
2023/03/14 04:52:02;;;;;;;1.90;0.95;;;;;;;20.61;35.45;98576.91;5040678;28;20042;-80
2023/03/14 04:54:29;;;;;;;2.58;1.15;;;;;;;20.71;35.37;98594.81;5041607;28;20040;-80
2023/03/14 04:56:58;;;;;;;2.05;0.90;;;;;;;20.70;35.42;98579.97;5041588;28;20037;-81
2023/03/14 04:59:26;;;;;;;1.48;1.10;;;;;;;20.66;35.21;98573.56;5040446;28;20044;-80
2023/03/14 05:01:56;;;;;;;0.88;0.65;;;;;;;20.66;35.27;98586.78;5018261;28;20062;-81
2023/03/14 05:04:44;;;;;;;1.98;1.33;;;;;;;20.67;35.40;98577.81;5014270;28;20087;-80
2023/03/14 05:07:33;;;;;;;1.20;1.02;;;;;;;20.55;35.42;98569.94;5024328;28;20402;-79
2023/03/14 05:10:33;;;;;;;1.92;1.23;;;;;;;20.70;35.44;98577.31;5020267;28;20053;-79
2023/03/14 05:13:32;;;;;;;1.85;1.10;;;;;;;20.57;35.58;98559.13;5021894;28;20045;-81
2023/03/14 05:16:29;;;;;;;1.13;0.80;;;;;;;20.62;35.35;98553.91;5018643;28;20041;-80
2023/03/14 05:19:01;;;;;;;1.95;0.73;;;;;;;20.68;35.48;98559.06;5023367;28;20041;-80
2023/03/14 05:21:35;;;;;;;2.63;1.20;;;;;;;20.67;35.61;98561.94;5036715;28;20049;-80
2023/03/14 05:24:30;;;;;;;1.85;0.98;;;;;;;20.65;35.52;98567.47;5022127;28;20053;-80
2023/03/14 05:27:07;;;;;;;1.10;0.90;;;;;;;20.65;35.51;98556.09;5040173;28;20037;-80
2023/03/14 05:29:57;;;;;;;1.52;0.65;;;;;;;20.64;35.27;98555.28;5034007;28;20046;-80
2023/03/14 05:32:45;;;;;;;1.60;0.80;;;;;;;20.67;35.50;98565.38;5034931;28;20045;-80
2023/03/14 05:35:20;;;;;;;1.90;1.10;;;;;;;20.65;35.35;98558.75;5024863;28;20048;-80
2023/03/14 05:38:04;;;;;;;1.63;0.82;;;;;;;20.61;35.46;98550.47;5035191;28;20204;-80
2023/03/14 05:40:40;;;;;;;1.55;0.85;;;;;;;20.58;35.38;98561.53;5022555;28;20037;-81
2023/03/14 05:43:12;;;;;;;1.30;0.77;;;;;;;20.58;35.38;98553.59;5041571;28;20029;-81
2023/03/14 05:45:37;;;;;;;2.92;1.45;;;;;;;20.61;35.43;98555.75;5032627;28;20119;-81
2023/03/14 05:48:23;;;;;;;1.35;1.02;;;;;;;20.62;35.33;98553.91;5033528;28;20045;-81
2023/03/14 05:51:00;;;;;;;0.60;0.60;;;;;;;20.60;35.58;98556.00;5018118;28;20109;-81
2023/03/14 05:53:47;;;;;;;1.20;0.75;;;;;;;20.65;35.54;98550.81;5032507;28;20060;-81
2023/03/14 05:56:32;;;;;;;1.30;0.85;;;;;;;20.62;35.68;98544.13;5034722;28;20096;-81
2023/03/14 05:59:09;;;;;;;1.63;0.82;;;;;;;20.61;35.61;98549.66;5038574;28;20041;-81
2023/03/14 06:01:44;;;;;;;1.75;1.00;;;;;;;20.56;35.59;98539.81;5035454;28;20046;-81
2023/03/14 06:04:15;;;;;;;2.83;0.98;;;;;;;20.62;35.42;98552.06;5022168;28;20042;-81
2023/03/14 06:06:43;;;;;;;3.00;0.93;;;;;;;20.47;35.55;98534.13;5034177;28;20037;-81
2023/03/14 06:09:10;;;;;;;1.25;0.80;;;;;;;20.59;35.54;98555.19;5025897;28;20048;-80
2023/03/14 06:11:38;;;;;;;2.05;1.00;;;;;;;20.62;35.58;98564.47;5031321;28;20107;-80
2023/03/14 06:14:05;;;;;;;1.80;1.00;;;;;;;20.60;35.65;98567.38;5018621;28;20065;-81
2023/03/14 06:16:31;;;;;;;1.85;0.70;;;;;;;20.56;35.70;98562.81;5044720;28;20044;-80
2023/03/14 06:18:58;;;;;;;1.45;1.02;;;;;;;20.58;35.62;98566.81;5001730;28;20041;-82
2023/03/14 06:21:24;;;;;;;1.35;0.80;;;;;;;20.61;35.65;98566.31;5034451;28;20053;-80
2023/03/14 06:23:49;;;;;;;2.17;1.23;;;;;;;20.58;35.62;98564.16;5034736;28;20033;-81
2023/03/14 06:26:16;;;;;;;0.75;0.57;;;;;;;20.61;35.52;98571.63;5033560;28;20308;-80
2023/03/14 06:28:42;;;;;;;1.77;0.80;;;;;;;20.60;35.57;98574.50;5034689;28;20033;-80
2023/03/14 06:31:08;;;;;;;1.50;0.93;;;;;;;20.60;35.57;98577.94;5036058;28;20040;-81
2023/03/14 06:33:41;;;;;;;2.15;0.85;;;;;;;20.60;35.60;98587.72;5019694;28;20267;-81
2023/03/14 06:36:08;;;;;;;0.82;0.80;;;;;;;20.56;35.61;98587.41;5037623;28;20045;-81
2023/03/14 06:38:35;;;;;;;1.02;0.70;;;;;;;20.58;35.67;98595.91;5037541;28;20060;-82
2023/03/14 06:41:07;;;;;;;1.33;0.70;;;;;;;20.64;35.42;98602.88;5037002;28;20033;-81
2023/03/14 06:43:39;;;;;;;1.45;0.63;;;;;;;20.61;35.56;98606.00;5032404;28;20037;-80
2023/03/14 06:46:06;;;;;;;1.50;0.70;;;;;;;20.58;35.73;98616.25;5040182;28;20038;-80
2023/03/14 06:48:33;;;;;;;1.13;0.80;;;;;;;20.58;35.59;98617.03;5038589;28;20061;-80
2023/03/14 06:51:00;;;;;;;1.58;0.82;;;;;;;20.57;35.61;98643.72;5036769;28;20100;-80
2023/03/14 06:53:25;;;;;;;1.02;0.90;;;;;;;20.56;35.58;98679.94;5031556;28;20042;-80
2023/03/14 06:55:51;;;;;;;1.40;1.02;;;;;;;20.60;35.72;98693.50;4999814;28;20040;-82
2023/03/14 06:58:18;;;;;;;1.02;0.70;;;;;;;20.57;35.60;98692.13;5038194;28;20045;-82
2023/03/14 07:00:45;;;;;;;1.15;0.70;;;;;;;20.48;35.68;98696.19;5038495;28;20049;-82
2023/03/14 07:03:14;;;;;;;0.80;0.75;;;;;;;20.51;35.47;98707.09;5021809;28;20056;-82
2023/03/14 07:05:42;;;;;;;1.33;0.75;;;;;;;20.43;35.48;98706.66;5038704;28;20043;-82
2023/03/14 07:08:08;;;;;;;2.05;1.20;;;;;;;20.55;35.59;98736.50;5041261;28;20033;-81
2023/03/14 07:10:34;;;;;;;1.17;0.77;;;;;;;20.56;35.71;98759.28;5024982;28;20036;-81
2023/03/14 07:13:00;;;;;;;2.38;0.80;;;;;;;20.48;35.55;98763.09;5037004;28;20045;-82
2023/03/14 07:15:29;;;;;;;1.52;0.88;;;;;;;20.50;35.44;98784.81;5055967;28;20044;-80
2023/03/14 07:17:58;;;;;;;1.45;0.73;;;;;;;20.49;35.56;98792.97;5023928;28;20964;-81
2023/03/14 07:20:25;;;;;;;1.60;1.15;;;;;;;20.52;35.50;98805.72;5039519;28;20053;-81
2023/03/14 07:22:51;;;;;;;2.03;0.77;;;;;;;20.56;35.30;98821.94;5028515;28;20038;-82
2023/03/14 07:25:21;;;;;;;;;;;;;;;20.57;35.32;98844.69;5030588;28;20060;-81
2023/03/14 07:27:47;;;;;;;1.45;0.70;;;;;;;20.49;35.41;98844.03;5033734;28;19917;-81
2023/03/14 07:30:14;;;;;;;2.65;0.80;;;;;;;20.51;35.43;98852.53;5038092;28;20033;-82
2023/03/14 07:32:40;;;;;;;1.75;0.70;;;;;;;20.55;35.27;98862.63;5030036;28;20045;-81
2023/03/14 07:35:06;;;;;;;2.15;0.60;;;;;;;20.50;35.25;98864.13;5029801;28;20470;-81
2023/03/14 07:37:34;;;;;;;0.43;0.40;;;;;;;20.58;35.13;98880.66;5006116;28;20045;-81
2023/03/14 07:40:05;;;;;;;1.95;0.68;;;;;;;20.65;34.80;98890.13;5034316;28;20049;-81
2023/03/14 07:42:31;;;;;;;0.60;0.60;;;;;;;20.79;34.58;98904.69;5037822;28;20053;-81
2023/03/14 07:45:19;;;;;;;0.50;0.50;;;;;;;21.22;33.87;98915.88;5031737;28;20045;-81
2023/03/14 07:47:44;;;;;;;0.65;0.40;;;;;;;21.99;32.80;98926.88;5018012;28;20052;-81
2023/03/14 07:50:10;;;;;;;2.30;0.85;;;;;;;22.59;31.77;98936.84;5020699;28;20072;-81
2023/03/14 07:52:35;;;;;;;1.92;0.80;;;;;;;22.55;31.67;98960.41;5032614;28;20056;-82
2023/03/14 07:55:01;;;;;;;1.80;0.77;;;;;;;22.48;31.78;98966.94;5031924;28;20037;-81
2023/03/14 07:57:26;;;;;;;1.25;0.75;;;;;;;22.36;32.14;98979.47;5029847;28;20045;-81
2023/03/14 07:59:52;;;;;;;0.70;0.43;;;;;;;22.15;32.81;98981.78;5036848;28;20052;-82
2023/03/14 08:02:20;;;;;;;2.28;0.68;;;;;;;22.00;32.68;98990.22;5034707;28;20053;-81
2023/03/14 08:04:45;;;;;;;1.08;0.50;;;;;;;21.95;32.78;98992.00;5031788;28;20404;-82
2023/03/14 08:07:11;;;;;;;0.55;0.55;;;;;;;21.93;32.86;98999.38;5031516;28;20061;-82
2023/03/14 08:09:36;;;;;;;0.60;0.60;;;;;;;21.94;32.53;99017.69;5017705;28;20041;-80
2023/03/14 08:12:02;;;;;;;1.00;0.52;;;;;;;21.88;32.67;99015.97;5031488;28;20230;-80
2023/03/14 08:14:28;;;;;;;0.30;0.30;;;;;;;21.81;33.13;99031.22;5031786;28;20045;-81
2023/03/14 08:16:54;;;;;;;1.15;0.47;;;;;;;21.73;33.35;99038.75;5031077;28;20380;-81
2023/03/14 08:19:20;;;;;;;0.98;0.50;;;;;;;21.70;32.99;99055.88;5021149;28;20057;-81
2023/03/14 08:21:46;;;;;;;1.27;0.77;;;;;;;21.68;33.06;99058.78;5005977;28;20033;-80
2023/03/14 08:24:11;;;;;;;0.50;0.40;;;;;;;21.65;33.30;99061.91;5018803;28;20044;-81
2023/03/14 08:26:37;;;;;;;0.55;0.32;;;;;;;21.54;33.08;99065.34;5035831;28;20128;-80
2023/03/14 08:29:04;;;;;;;2.20;0.65;;;;;;;21.52;33.49;99085.97;5021417;28;20041;-81
2023/03/14 08:31:30;;;;;;;0.30;0.30;;;;;;;21.57;33.29;99085.31;5035547;28;20041;-80
2023/03/14 08:33:59;;;;;;;1.40;0.60;;;;;;;21.50;33.19;99093.34;5038797;28;20038;-81
2023/03/14 08:36:24;;;;;;;0.55;0.45;;;;;;;21.41;33.53;99098.22;5030360;28;20484;-81
2023/03/14 08:38:50;;;;;;;1.27;0.50;;;;;;;21.44;33.24;99117.31;5023350;28;20048;-82
2023/03/14 08:41:15;;;;;;;0.43;0.40;;;;;;;21.39;33.53;99121.47;5037512;28;20038;-82
2023/03/14 08:43:41;;;;;;;0.90;0.50;;;;;;;21.37;33.47;99131.50;5039829;28;20037;-82
2023/03/14 08:46:06;;;;;;;0.35;0.30;;;;;;;21.38;33.68;99124.34;5036088;28;20099;-81
2023/03/14 08:48:32;;;;;;;1.98;0.77;;;;;;;21.42;33.60;99128.94;5037352;28;20041;-83
2023/03/14 08:51:05;;;;;;;1.20;0.63;;;;;;;21.35;33.51;99130.88;5020190;28;20048;-82
2023/03/14 08:53:30;;;;;;;2.38;0.50;;;;;;;21.39;33.45;99141.84;5033773;28;20266;-83
2023/03/14 08:55:56;;;;;;;0.32;0.30;;;;;;;21.31;33.63;99139.53;5032526;28;20056;-83
2023/03/14 08:58:23;;;;;;;0.95;0.63;;;;;;;21.37;33.64;99154.50;5022594;28;20040;-82
2023/03/14 09:00:49;;;;;;;0.25;0.25;;;;;;;21.34;33.65;99169.00;5032156;28;20084;-82
2023/03/14 09:03:15;;;;;;;1.27;0.43;;;;;;;21.33;33.59;99159.44;5033665;28;20049;-78
2023/03/14 09:05:40;;;;;;;0.93;0.50;;;;;;;21.28;33.61;99163.81;5036533;28;20068;-81
2023/03/14 09:08:06;;;;;;;0.35;0.20;;;;;;;21.29;33.62;99197.19;5035281;28;20032;-80
2023/03/14 09:10:31;;;;;;;2.20;0.60;;;;;;;21.32;33.64;99215.28;5036492;28;20082;-81
2023/03/14 09:12:58;;;;;;;0.70;0.40;;;;;;;21.34;33.45;99224.59;5030551;28;20068;-83
2023/03/14 09:15:24;;;;;;;0.95;0.52;;;;;;;21.32;33.52;99255.00;5032675;28;20088;-80
2023/03/14 09:17:49;;;;;;;0.82;0.38;;;;;;;21.27;33.82;99257.50;5029002;28;20038;-81
2023/03/14 09:20:15;;;;;;;0.73;0.40;;;;;;;21.25;33.65;99275.47;5033452;28;20064;-81
2023/03/14 09:22:41;;;;;;;0.93;0.70;;;;;;;21.32;33.39;99289.41;5037962;28;20041;-81
2023/03/14 09:25:07;;;;;;;1.10;0.80;;;;;;;21.34;33.57;99279.41;5032870;28;20049;-80
2023/03/14 09:27:32;;;;;;;2.08;0.98;;;;;;;21.26;33.41;99293.78;5034754;28;20040;-80
2023/03/14 09:29:58;;;;;;;2.25;1.13;;;;;;;21.31;33.43;99296.53;5036283;28;20056;-80
2023/03/14 09:32:23;;;;;;;2.10;0.63;;;;;;;21.28;33.52;99301.50;5037060;28;20046;-80
2023/03/14 09:34:49;;;;;;;2.88;0.52;;;;;;;21.29;33.30;99301.25;5035571;28;20041;-80
2023/03/14 09:37:16;;;;;;;1.85;1.08;;;;;;;21.28;33.38;99317.38;5028541;28;20063;-81
2023/03/14 09:39:41;;;;;;;1.55;0.75;;;;;;;21.26;33.30;99333.47;5001380;28;20033;-81
2023/03/14 09:42:12;;;;;;;1.35;0.75;;;;;;;21.22;33.50;99337.59;5033093;28;20050;-80
2023/03/14 09:45:06;;;;;;;1.35;0.80;;;;;;;21.16;33.39;99340.31;5035752;28;20416;-81
2023/03/14 09:47:33;;;;;;;1.80;0.98;;;;;;;21.24;33.23;99359.38;5034641;28;20509;-81
2023/03/14 09:50:03;;;;;;;3.30;0.88;;;;;;;21.24;33.26;99356.72;5041040;28;20040;-81
2023/03/14 09:52:37;;;;;;;2.72;0.90;;;;;;;21.16;33.45;99364.13;5021540;28;20050;-81
2023/03/14 09:55:11;;;;;;;1.85;0.75;;;;;;;21.22;33.47;99372.00;5031513;28;20052;-81
2023/03/14 09:57:37;;;;;;;1.95;0.90;;;;;;;21.23;33.40;99383.41;5034282;28;20216;-82
2023/03/14 10:00:14;;;;;;;1.30;0.80;;;;;;;21.15;33.46;99383.69;5039552;28;20686;-81
2023/03/14 10:02:42;;;;;;;1.40;0.90;;;;;;;21.12;33.23;99391.06;5035332;28;20032;-82
2023/03/14 10:05:20;;;;;;;2.22;1.00;;;;;;;21.13;33.18;99405.91;5038136;28;20068;-81
2023/03/14 10:07:45;;;;;;;2.75;1.17;;;;;;;21.10;33.18;99409.00;5031718;28;20208;-80
2023/03/14 10:10:17;;;;;;;2.40;0.90;;;;;;;21.18;33.20;99431.69;5020213;28;20088;-81
2023/03/14 10:12:46;;;;;;;1.83;1.10;;;;;;;21.18;33.12;99428.25;5033375;28;20021;-81
2023/03/14 10:15:17;;;;;;;1.77;1.10;;;;;;;21.17;33.16;99445.16;5035375;28;20029;-81
2023/03/14 10:17:50;;;;;;;2.25;1.08;;;;;;;21.15;32.94;99447.22;5032698;28;20100;-81
2023/03/14 10:20:37;;;;;;;2.22;1.00;;;;;;;21.14;33.03;99454.34;5018088;28;20033;-81
2023/03/14 10:23:22;;;;;;;1.73;0.98;;;;;;;21.09;32.95;99483.34;5029489;28;20033;-81
2023/03/14 10:26:08;;;;;;;1.98;1.00;;;;;;;21.02;32.87;99479.97;5030833;28;21375;-81
2023/03/14 10:28:38;;;;;;;2.88;1.10;;;;;;;21.08;33.01;99502.88;5036532;28;20037;-81
2023/03/14 10:31:04;;;;;;;4.90;1.70;;;;;;;21.16;32.68;99515.00;5033062;28;20029;-81
2023/03/14 10:33:33;;;;;;;3.83;1.50;;;;;;;21.03;32.77;99497.44;5029140;28;20041;-81
2023/03/14 10:36:23;;;;;;;2.67;1.30;;;;;;;21.13;32.69;99534.78;5032620;28;20038;-81
2023/03/14 10:38:49;;;;;;;3.22;1.00;;;;;;;21.05;32.75;99521.84;5027860;28;20049;-80
2023/03/14 10:41:17;;;;;;;3.03;1.27;;;;;;;21.00;32.74;99527.78;5034096;28;20181;-80
2023/03/14 10:43:43;;;;;;;2.15;1.08;;;;;;;21.10;32.67;99554.56;5030109;28;20021;-80
2023/03/14 10:46:14;;;;;;;2.47;1.33;;;;;;;21.11;32.81;99550.91;5033039;28;20101;-81
2023/03/14 10:49:05;;;;;;;2.95;1.48;;;;;;;21.09;32.66;99568.03;5030555;28;20051;-82
2023/03/14 10:51:30;;;;;;;2.70;1.20;;;;;;;21.11;32.67;99573.91;5038310;28;20036;-83
2023/03/14 10:54:03;;;;;;;3.45;1.60;;;;;;;21.03;32.78;99582.94;5033476;28;20106;-80
2023/03/14 10:56:36;;;;;;;2.38;1.27;;;;;;;21.08;32.67;99591.03;5032666;28;20952;-80
2023/03/14 10:59:03;;;;;;;3.50;1.20;;;;;;;21.09;32.76;99602.44;5028766;28;20034;-82
2023/03/14 11:01:47;;;;;;;3.65;1.52;;;;;;;21.15;32.53;99612.16;5028771;28;20053;-82
2023/03/14 11:04:47;;;;;;;4.35;1.55;;;;;;;21.15;32.51;99625.38;5032396;28;20684;-81
2023/03/14 11:07:31;;;;;;;3.45;1.33;;;;;;;21.11;32.62;99630.31;5016643;28;20049;-81
2023/03/14 11:09:57;;;;;;;3.40;1.65;;;;;;;21.13;32.54;99644.13;5036838;28;20139;-81
2023/03/14 11:12:47;;;;;;;2.72;1.45;;;;;;;21.16;32.40;99655.31;5036314;28;20057;-81
2023/03/14 11:15:32;;;;;;;2.03;1.35;;;;;;;21.15;32.41;99688.09;5034624;28;20029;-81
2023/03/14 11:18:31;;;;;;;3.78;1.35;;;;;;;21.09;32.53;99676.56;5031378;28;20033;-82
2023/03/14 11:21:02;;;;;;;3.10;1.70;;;;;;;21.08;32.49;99693.47;5028787;28;20041;-81
2023/03/14 11:23:46;;;;;;;3.97;1.40;;;;;;;21.10;31.99;99708.09;5048874;28;20041;-81
2023/03/14 11:26:34;;;;;;;2.67;1.00;;;;;;;21.14;32.02;99719.06;5029936;28;20046;-82
2023/03/14 11:29:46;;;;;;;1.77;0.98;;;;;;;21.08;32.26;99712.81;5028875;28;20043;-80
2023/03/14 11:32:17;;;;;;;2.38;1.27;;;;;;;21.16;32.34;99729.44;5018641;28;20427;-81
2023/03/14 11:34:54;;;;;;;4.95;1.92;;;;;;;21.17;32.19;99731.06;5030560;28;20143;-80
2023/03/14 11:37:47;;;;;;;2.90;1.15;;;;;;;21.10;31.99;99736.41;5030185;28;20056;-81
2023/03/14 11:40:17;;;;;;;2.85;1.23;;;;;;;21.13;32.03;99768.56;5011020;28;20033;-81
2023/03/14 11:42:47;;;;;;;2.38;1.40;;;;;;;21.07;31.71;99774.72;5028951;28;20041;-80
2023/03/14 11:45:20;;;;;;;2.13;1.10;;;;;;;21.03;31.58;99762.13;5030484;28;20042;-81
2023/03/14 11:47:55;;;;;;;2.80;1.27;;;;;;;21.11;31.61;99783.03;5029712;28;20044;-80
2023/03/14 11:50:29;;;;;;;3.55;1.25;;;;;;;21.10;31.81;99786.72;5032790;28;20052;-80